Time;durP1;ratioP1;P1;durP2;ratioP2;P2;SDS_P1;SDS_P2;PMS_P1;PMS_P2;Temp;Humidity;BMP_temperature;BMP_pressure;BME280_temperature;BME280_humidity;BME280_pressure;Samples;Min_cycle;Max_cycle;Signal;HPM_P1;HPM_P2
2022/07/02 00:00:36;;;;;;;2.95;1.45;;;22.70;53.50;;;;;;5070288;23;20454;-63
2022/07/02 00:02:42;;;;;;;3.97;1.63;;;22.70;53.70;;;;;;5069962;23;20057;-65
2022/07/02 00:04:52;;;;;;;8.52;1.40;;;22.60;54.10;;;;;;5091880;23;20029;-61
2022/07/02 00:06:54;;;;;;;5.45;1.73;;;22.60;54.00;;;;;;5088446;23;20086;-61
2022/07/02 00:08:57;;;;;;;3.65;1.38;;;22.50;54.00;;;;;;5099841;23;20032;-59
2022/07/02 00:11:03;;;;;;;2.83;1.17;;;22.50;54.10;;;;;;5074125;23;20422;-64
2022/07/02 00:13:06;;;;;;;4.35;1.27;;;22.40;54.10;;;;;;5076263;23;20325;-62
2022/07/02 00:15:10;;;;;;;3.97;1.65;;;22.40;54.10;;;;;;5074274;23;20359;-58
2022/07/02 00:17:12;;;;;;;3.22;1.63;;;22.30;54.00;;;;;;5083413;23;20037;-60
2022/07/02 00:19:15;;;;;;;2.57;1.20;;;22.30;54.00;;;;;;5068464;23;20213;-60
2022/07/02 00:21:18;;;;;;;3.30;1.27;;;22.20;54.10;;;;;;5093680;23;20032;-61
2022/07/02 00:23:21;;;;;;;2.72;1.40;;;22.20;54.40;;;;;;5095249;23;20385;-59
2022/07/02 00:25:24;;;;;;;3.00;1.42;;;22.20;54.60;;;;;;5097943;23;20063;-60
2022/07/02 00:27:30;;;;;;;2.97;1.40;;;22.10;54.70;;;;;;5090341;23;20032;-59
2022/07/02 00:30:00;;;;;;;4.25;1.38;;;22.10;54.70;;;;;;5091672;23;20039;-59
2022/07/02 00:32:04;;;;;;;5.25;1.38;;;22.00;54.80;;;;;;5077826;23;20032;-54
2022/07/02 00:34:10;;;;;;;10.15;1.80;;;22.00;55.00;;;;;;5099921;23;20515;-64
2022/07/02 00:36:22;;;;;;;11.07;2.15;;;21.90;55.20;;;;;;5124609;23;20023;-63
2022/07/02 00:45:16;;;;;;;3.55;1.60;;;21.80;55.20;;;;;;5104380;23;20071;-73
2022/07/02 00:47:23;;;;;;;3.05;1.40;;;21.80;55.60;;;;;;5099057;23;20384;-61
2022/07/02 00:50:17;;;;;;;4.45;1.30;;;21.70;55.60;;;;;;5111064;23;20031;-70
2022/07/02 00:52:20;;;;;;;4.65;1.20;;;21.60;55.50;;;;;;5096329;23;20135;-70
2022/07/02 00:54:23;;;;;;;5.72;1.90;;;21.50;55.90;;;;;;5094950;23;20416;-71
2022/07/02 00:56:26;;;;;;;3.88;1.80;;;21.50;55.80;;;;;;5094589;23;20029;-68
2022/07/02 00:58:31;;;;;;;3.42;1.10;;;21.40;55.90;;;;;;5071096;23;20040;-70
2022/07/02 01:00:34;;;;;;;2.60;1.20;;;21.40;55.90;;;;;;5093482;23;20941;-69
2022/07/02 01:02:38;;;;;;;3.05;1.27;;;21.30;55.80;;;;;;5094305;23;20032;-70
2022/07/02 01:04:41;;;;;;;10.35;1.73;;;21.30;55.90;;;;;;5093394;23;20029;-70
2022/07/02 01:06:45;;;;;;;4.25;1.60;;;21.30;55.90;;;;;;5098814;23;20035;-70
2022/07/02 01:11:12;;;;;;;2.83;1.10;;;21.20;56.00;;;;;;5098376;23;20033;-70
2022/07/02 01:13:15;;;;;;;2.83;1.00;;;21.20;55.90;;;;;;5094112;23;20576;-69
2022/07/02 01:15:18;;;;;;;2.10;1.17;;;21.10;55.90;;;;;;5091742;23;20032;-69
2022/07/02 01:17:21;;;;;;;2.60;1.23;;;21.10;56.00;;;;;;5092740;23;20478;-71
2022/07/02 01:19:23;;;;;;;;;;;21.10;56.00;;;;;;5094467;23;20048;-70
2022/07/02 01:21:25;;;;;;;6.25;1.52;;;21.00;56.00;;;;;;5090918;23;20628;-72
2022/07/02 01:23:28;;;;;;;2.58;1.20;;;21.00;56.20;;;;;;5091451;23;20035;-72
2022/07/02 01:25:30;;;;;;;1.57;1.00;;;20.90;56.20;;;;;;5096403;23;20517;-69
2022/07/02 01:27:33;;;;;;;2.25;1.20;;;20.90;56.30;;;;;;5064911;23;21007;-70
2022/07/02 01:29:35;;;;;;;1.57;0.90;;;20.80;56.30;;;;;;5092283;23;20111;-69
2022/07/02 01:31:38;;;;;;;3.42;1.23;;;20.80;56.30;;;;;;5096008;23;20025;-69
2022/07/02 01:33:40;;;;;;;2.20;1.38;;;20.80;56.40;;;;;;5099207;23;20035;-71
2022/07/02 01:35:42;;;;;;;2.05;1.10;;;20.70;56.40;;;;;;5091411;23;20501;-69
2022/07/02 01:37:45;;;;;;;3.25;1.30;;;20.70;56.50;;;;;;5091871;23;20391;-70
2022/07/02 01:39:48;;;;;;;3.95;1.20;;;20.60;56.60;;;;;;5072654;23;20293;-69
2022/07/02 01:41:50;;;;;;;1.83;0.98;;;20.60;56.60;;;;;;5092816;23;20319;-71
2022/07/02 01:43:52;;;;;;;2.58;1.15;;;20.60;56.70;;;;;;5088061;23;20493;-71
2022/07/02 01:45:54;;;;;;;2.88;1.38;;;20.50;56.80;;;;;;5096616;23;20390;-70
2022/07/02 01:47:56;;;;;;;2.20;1.08;;;20.50;56.90;;;;;;5093891;23;20039;-69
2022/07/02 01:49:59;;;;;;;4.72;1.23;;;20.40;56.90;;;;;;5067150;23;20060;-70
2022/07/02 01:52:02;;;;;;;1.42;1.00;;;20.40;56.90;;;;;;5094126;23;20052;-69
2022/07/02 01:54:04;;;;;;;2.13;1.25;;;20.40;56.90;;;;;;5099483;23;20525;-70
2022/07/02 01:56:06;;;;;;;1.60;0.83;;;20.30;57.00;;;;;;5091846;23;20032;-70
2022/07/02 01:58:08;;;;;;;4.03;1.63;;;20.30;57.00;;;;;;5093499;23;20364;-71
2022/07/02 02:00:13;;;;;;;3.15;1.38;;;20.30;57.00;;;;;;5097357;23;20032;-71
2022/07/02 02:02:15;;;;;;;3.45;1.20;;;20.30;57.20;;;;;;5095634;23;20571;-70
2022/07/02 02:04:17;;;;;;;6.15;1.48;;;20.20;57.20;;;;;;5093083;23;20103;-70
2022/07/02 02:06:20;;;;;;;2.78;1.10;;;20.20;57.20;;;;;;5092889;23;20032;-71
2022/07/02 02:08:22;;;;;;;2.15;1.10;;;20.20;57.30;;;;;;5096233;23;20025;-70
2022/07/02 02:10:24;;;;;;;2.42;1.13;;;20.10;57.30;;;;;;5089741;23;20036;-71
2022/07/02 02:12:26;;;;;;;4.35;1.83;;;20.10;57.30;;;;;;5086732;23;20626;-74
2022/07/02 02:14:29;;;;;;;1.88;1.02;;;20.10;57.40;;;;;;5093642;23;20032;-69
2022/07/02 02:16:32;;;;;;;2.20;0.90;;;20.10;57.50;;;;;;5064288;23;20123;-72
2022/07/02 02:18:34;;;;;;;0.90;0.80;;;20.00;57.50;;;;;;5089289;23;20107;-70
2022/07/02 02:20:38;;;;;;;2.85;1.25;;;20.00;57.60;;;;;;5092664;23;20639;-73
2022/07/02 02:22:40;;;;;;;;;;;20.00;57.60;;;;;;5096078;23;20036;-71
2022/07/02 02:24:42;;;;;;;2.58;0.80;;;19.90;57.60;;;;;;5061165;23;19920;-72
2022/07/02 02:26:44;;;;;;;2.30;1.00;;;19.90;57.80;;;;;;5090851;23;20025;-72
2022/07/02 02:28:47;;;;;;;2.70;1.65;;;19.90;57.80;;;;;;5094317;23;20389;-72
2022/07/02 02:30:49;;;;;;;2.33;1.30;;;19.90;57.90;;;;;;5092072;23;20994;-71
2022/07/02 02:32:52;;;;;;;1.65;1.00;;;19.80;57.90;;;;;;5091473;23;20032;-70
2022/07/02 02:34:54;;;;;;;1.52;1.10;;;19.80;58.10;;;;;;5096979;23;20102;-71
2022/07/02 02:36:56;;;;;;;1.52;1.00;;;19.80;58.10;;;;;;5093265;23;20771;-74
2022/07/02 02:38:59;;;;;;;2.90;1.63;;;19.70;58.10;;;;;;5091938;23;20052;-71
2022/07/02 02:41:05;;;;;;;2.58;1.45;;;19.70;58.20;;;;;;5092630;23;20104;-74
2022/07/02 02:43:07;;;;;;;1.92;1.17;;;19.70;58.30;;;;;;5097918;23;20043;-77
2022/07/02 02:45:10;;;;;;;2.78;1.10;;;19.70;58.30;;;;;;5094323;23;20350;-75
2022/07/02 02:47:12;;;;;;;2.50;1.58;;;19.60;58.30;;;;;;5092442;23;20027;-73
2022/07/02 02:49:14;;;;;;;2.47;1.30;;;19.60;58.40;;;;;;5097106;23;20036;-74
2022/07/02 02:51:17;;;;;;;3.30;1.40;;;19.60;58.50;;;;;;5093623;23;20193;-74
2022/07/02 02:53:19;;;;;;;3.67;1.48;;;19.50;58.50;;;;;;5093120;23;20355;-73
2022/07/02 02:55:21;;;;;;;3.03;1.80;;;19.50;58.60;;;;;;5093065;23;20024;-75
2022/07/02 02:57:24;;;;;;;5.75;1.88;;;19.60;58.80;;;;;;5069839;23;20118;-71
2022/07/02 02:59:26;;;;;;;5.68;2.17;;;19.50;58.80;;;;;;5063744;23;20572;-73
2022/07/02 03:01:28;;;;;;;6.13;2.58;;;19.50;58.80;;;;;;5096393;23;20549;-74
2022/07/02 03:03:31;;;;;;;7.60;3.53;;;19.50;59.00;;;;;;5072450;23;20124;-75
2022/07/02 03:05:33;;;;;;;7.38;4.18;;;19.40;59.20;;;;;;5094201;23;20028;-74
2022/07/02 03:07:36;;;;;;;7.75;4.30;;;19.40;59.30;;;;;;5064662;23;20091;-70
2022/07/02 03:09:38;;;;;;;8.05;4.18;;;19.40;59.40;;;;;;5092361;23;20028;-69
2022/07/02 03:11:40;;;;;;;8.10;4.37;;;19.40;59.60;;;;;;5047037;23;20689;-73
2022/07/02 03:13:43;;;;;;;9.88;4.95;;;19.40;59.70;;;;;;5090938;23;20032;-71
2022/07/02 03:15:45;;;;;;;13.30;5.20;;;19.30;59.80;;;;;;5092078;23;20127;-75
2022/07/02 03:17:48;;;;;;;10.32;4.82;;;19.30;60.00;;;;;;5099102;23;20060;-75
2022/07/02 03:19:51;;;;;;;8.13;5.07;;;19.30;60.10;;;;;;5091922;23;20693;-74
2022/07/02 03:21:53;;;;;;;11.15;5.80;;;19.30;60.20;;;;;;5095088;23;20573;-74
2022/07/02 03:23:58;;;;;;;17.10;5.60;;;19.20;60.30;;;;;;5067480;23;20391;-78
2022/07/02 03:26:00;;;;;;;10.13;5.30;;;19.20;60.50;;;;;;5099562;23;20082;-75
2022/07/02 03:28:03;;;;;;;8.40;4.90;;;19.20;60.40;;;;;;5092356;23;20032;-74
2022/07/02 03:30:06;;;;;;;15.38;5.45;;;19.20;60.50;;;;;;5092648;23;20296;-76
2022/07/02 03:32:09;;;;;;;8.82;5.43;;;19.20;60.50;;;;;;5098349;23;20035;-74
2022/07/02 03:34:11;;;;;;;8.10;4.95;;;19.10;60.60;;;;;;5094649;23;20028;-77
2022/07/02 03:36:13;;;;;;;12.38;5.40;;;19.10;60.70;;;;;;5066115;23;20068;-73
2022/07/02 03:38:16;;;;;;;10.60;5.78;;;19.10;60.80;;;;;;5068837;23;20029;-77
2022/07/02 03:40:18;;;;;;;9.48;5.20;;;19.10;60.80;;;;;;5097092;23;20401;-74
2022/07/02 03:42:20;;;;;;;9.80;6.05;;;19.10;61.00;;;;;;5093285;23;20444;-75
2022/07/02 03:44:23;;;;;;;9.70;5.03;;;19.10;61.00;;;;;;5090404;23;20028;-71
2022/07/02 03:46:26;;;;;;;9.18;4.97;;;19.00;61.00;;;;;;5097698;23;20032;-75
2022/07/02 03:48:28;;;;;;;8.17;5.33;;;19.00;61.00;;;;;;5093422;23;20835;-76
2022/07/02 03:50:30;;;;;;;8.40;5.10;;;19.00;61.20;;;;;;5093946;23;20025;-75
2022/07/02 03:52:33;;;;;;;8.25;5.03;;;19.00;61.10;;;;;;5098062;23;20031;-76
2022/07/02 03:54:38;;;;;;;11.38;4.72;;;19.00;61.20;;;;;;5096962;23;20614;-74
2022/07/02 03:56:40;;;;;;;8.45;5.10;;;19.00;61.30;;;;;;5096127;23;20135;-74
2022/07/02 03:58:43;;;;;;;8.70;4.65;;;18.90;61.30;;;;;;5067188;23;20089;-77
2022/07/02 04:00:45;;;;;;;7.88;4.85;;;18.90;61.30;;;;;;5073490;23;20569;-78
2022/07/02 04:02:47;;;;;;;7.80;4.47;;;18.90;61.40;;;;;;5096667;23;20368;-76
2022/07/02 04:04:50;;;;;;;7.28;4.38;;;18.90;61.50;;;;;;5066679;23;20346;-74
2022/07/02 04:06:52;;;;;;;8.40;4.57;;;18.90;61.50;;;;;;5073090;23;20305;-72
2022/07/02 04:08:54;;;;;;;7.28;4.20;;;18.90;61.40;;;;;;5096351;23;20206;-73
2022/07/02 04:10:59;;;;;;;8.20;4.18;;;18.90;61.70;;;;;;5094340;23;20032;-73
2022/07/02 04:13:03;;;;;;;6.03;4.00;;;18.80;61.80;;;;;;5091930;23;20247;-75
2022/07/02 04:15:05;;;;;;;6.82;3.85;;;18.80;61.80;;;;;;5099720;23;20032;-75
2022/07/02 04:17:08;;;;;;;6.75;4.15;;;18.80;61.70;;;;;;5095885;23;20322;-75
2022/07/02 04:19:10;;;;;;;7.03;3.97;;;18.80;61.70;;;;;;5065543;23;20031;-73
2022/07/02 04:21:12;;;;;;;6.82;4.03;;;18.80;61.90;;;;;;5097341;23;20041;-74
2022/07/02 04:23:14;;;;;;;5.35;3.40;;;18.70;61.80;;;;;;5095044;23;20636;-75
2022/07/02 04:25:17;;;;;;;8.45;4.30;;;18.70;62.00;;;;;;5092311;23;20028;-76
2022/07/02 04:27:19;;;;;;;7.28;3.47;;;18.70;62.20;;;;;;5092361;23;20055;-77
2022/07/02 04:29:21;;;;;;;5.07;3.08;;;18.70;62.40;;;;;;5068305;23;20084;-77
2022/07/02 04:31:23;;;;;;;7.07;3.40;;;18.70;62.40;;;;;;5092711;23;20222;-76
2022/07/02 04:33:25;;;;;;;6.28;3.50;;;18.70;62.40;;;;;;5091286;23;20032;-72
2022/07/02 04:35:28;;;;;;;5.80;3.33;;;18.70;62.50;;;;;;5097749;23;20497;-76
2022/07/02 04:37:31;;;;;;;6.72;3.17;;;18.60;62.60;;;;;;5094607;23;20358;-74
2022/07/02 04:39:33;;;;;;;6.38;3.10;;;18.60;62.50;;;;;;5094133;23;20110;-75
2022/07/02 04:41:35;;;;;;;6.70;2.75;;;18.60;62.60;;;;;;5067440;23;20091;-72
2022/07/02 04:43:37;;;;;;;5.93;2.92;;;18.60;62.50;;;;;;5096742;23;20028;-71
2022/07/02 04:45:39;;;;;;;9.35;3.30;;;18.60;62.70;;;;;;5091126;23;20724;-75
2022/07/02 04:47:42;;;;;;;4.97;2.85;;;18.60;62.80;;;;;;5093350;23;20035;-74
2022/07/02 04:49:44;;;;;;;5.47;2.88;;;18.60;63.00;;;;;;5097592;23;20059;-74
2022/07/02 04:51:46;;;;;;;5.22;2.75;;;18.60;62.90;;;;;;5094275;23;20028;-76
2022/07/02 04:53:49;;;;;;;5.90;2.97;;;18.50;63.10;;;;;;5067967;23;20245;-75
2022/07/02 04:55:51;;;;;;;6.03;3.10;;;18.50;63.00;;;;;;5100079;23;20025;-73
2022/07/02 04:57:53;;;;;;;6.60;3.03;;;18.50;63.10;;;;;;5098256;23;20024;-75
2022/07/02 04:59:56;;;;;;;4.70;2.58;;;18.50;63.60;;;;;;5093061;23;20028;-73
2022/07/02 05:02:01;;;;;;;5.70;2.60;;;18.50;63.10;;;;;;5099580;23;20363;-75
2022/07/02 05:07:20;;;;;;;4.75;2.38;;;18.50;63.00;;;;;;5154655;23;20019;-74
2022/07/02 05:16:31;;;;;;;5.38;2.35;;;18.40;63.40;;;;;;5108030;23;20028;-76
2022/07/02 05:19:43;;;;;;;5.32;2.30;;;18.40;63.40;;;;;;5123630;23;20554;-75
2022/07/02 05:21:55;;;;;;;7.50;2.72;;;18.40;63.50;;;;;;5102346;23;20080;-72
2022/07/02 05:23:57;;;;;;;5.00;2.40;;;18.30;63.70;;;;;;5094867;23;20519;-77
2022/07/02 05:26:00;;;;;;;4.50;2.20;;;18.30;63.80;;;;;;5068057;23;20412;-64
2022/07/02 05:28:02;;;;;;;6.53;2.73;;;18.40;63.90;;;;;;5089774;23;20033;-64
2022/07/02 05:30:05;;;;;;;6.63;2.65;;;18.30;63.90;;;;;;5090372;23;20278;-63
2022/07/02 05:32:08;;;;;;;8.77;2.30;;;18.30;64.30;;;;;;5096619;23;20036;-64
2022/07/02 05:34:10;;;;;;;5.25;1.92;;;18.30;64.30;;;;;;5088641;23;20381;-64
2022/07/02 05:36:12;;;;;;;6.00;2.38;;;18.30;64.20;;;;;;5058310;23;20455;-63
2022/07/02 05:38:14;;;;;;;3.90;2.13;;;18.30;64.20;;;;;;5097275;23;20028;-64
2022/07/02 05:40:17;;;;;;;5.30;2.28;;;18.30;64.40;;;;;;5091429;23;20549;-63
2022/07/02 05:42:19;;;;;;;4.00;2.00;;;18.30;64.40;;;;;;5037839;23;20037;-64
2022/07/02 05:44:22;;;;;;;4.63;1.95;;;18.20;64.30;;;;;;5090415;23;20390;-64
2022/07/02 05:46:24;;;;;;;5.95;2.40;;;18.20;64.60;;;;;;5096583;23;20032;-63
2022/07/02 05:48:27;;;;;;;5.00;2.10;;;18.20;64.50;;;;;;5090533;23;20032;-64
2022/07/02 05:50:29;;;;;;;6.95;2.22;;;18.20;64.60;;;;;;5088835;23;20135;-64
2022/07/02 05:52:31;;;;;;;3.88;2.00;;;18.20;64.80;;;;;;5096866;23;20024;-64
2022/07/02 05:54:33;;;;;;;5.30;2.00;;;18.20;64.80;;;;;;5088470;23;20451;-64
2022/07/02 05:56:36;;;;;;;5.60;2.10;;;18.20;65.00;;;;;;5089280;23;20769;-64
2022/07/02 05:58:38;;;;;;;4.55;2.03;;;18.20;65.10;;;;;;5091798;23;20596;-64
2022/07/02 06:00:40;;;;;;;3.83;1.73;;;18.20;65.00;;;;;;5040398;23;20128;-65
2022/07/02 06:02:42;;;;;;;5.18;2.10;;;18.10;64.90;;;;;;5088786;23;20037;-65
2022/07/02 06:04:44;;;;;;;5.75;1.90;;;18.10;65.00;;;;;;5091791;23;20032;-66
2022/07/02 06:09:07;;;;;;;6.28;2.25;;;18.10;65.10;;;;;;5090410;23;20276;-66
2022/07/02 06:11:11;;;;;;;4.32;1.80;;;18.10;65.30;;;;;;5092274;23;20286;-64
2022/07/02 06:13:15;;;;;;;7.05;2.00;;;18.10;65.30;;;;;;5087615;23;20039;-67
2022/07/02 06:15:19;;;;;;;7.45;2.28;;;18.10;65.80;;;;;;5062764;23;20035;-66
2022/07/02 06:17:21;;;;;;;7.47;1.90;;;18.10;67.70;;;;;;5091093;23;20230;-68
2022/07/02 06:19:23;;;;;;;8.02;2.45;;;18.10;68.90;;;;;;5090612;23;21134;-66
2022/07/02 06:21:25;;;;;;;4.85;2.05;;;18.10;69.00;;;;;;5087852;23;20264;-66
2022/07/02 06:23:28;;;;;;;5.60;2.30;;;18.00;69.00;;;;;;5065310;23;20025;-67
2022/07/02 06:25:30;;;;;;;7.63;2.17;;;18.00;69.40;;;;;;5068920;23;20032;-69
2022/07/02 06:27:34;;;;;;;9.10;2.50;;;18.00;69.30;;;;;;5089383;23;20020;-65
2022/07/02 06:29:36;;;;;;;8.18;2.38;;;18.00;69.70;;;;;;5061313;23;20033;-66
2022/07/02 06:31:38;;;;;;;7.07;2.33;;;18.00;69.40;;;;;;5094760;23;20090;-65
2022/07/02 06:33:41;;;;;;;10.38;2.67;;;18.00;69.70;;;;;;5065407;23;20300;-66
2022/07/02 06:35:43;;;;;;;9.15;2.47;;;17.90;70.10;;;;;;5063267;23;20029;-68
2022/07/02 06:37:45;;;;;;;7.72;2.45;;;17.90;70.10;;;;;;5068920;23;20278;-68
2022/07/02 06:39:47;;;;;;;9.38;2.47;;;17.90;70.20;;;;;;5068975;23;20303;-68
2022/07/02 06:44:10;;;;;;;8.63;2.17;;;17.90;70.40;;;;;;5091966;23;20040;-67
2022/07/02 06:46:13;;;;;;;7.63;2.05;;;17.90;70.40;;;;;;5087621;23;20373;-68
2022/07/02 06:48:18;;;;;;;9.40;2.83;;;17.80;70.30;;;;;;5093110;23;20050;-67
2022/07/02 06:50:20;;;;;;;5.97;2.10;;;17.80;70.80;;;;;;5096816;23;20094;-69
2022/07/02 06:52:24;;;;;;;6.00;1.92;;;17.80;71.00;;;;;;5092912;23;20091;-65
2022/07/02 06:54:26;;;;;;;7.10;2.40;;;17.80;71.10;;;;;;5092267;23;20105;-65
2022/07/02 06:56:35;;;;;;;6.75;2.00;;;17.80;71.20;;;;;;5072514;23;20507;-71
2022/07/02 06:58:37;;;;;;;9.20;2.20;;;17.80;71.40;;;;;;5098197;23;20090;-68
2022/07/02 07:00:40;;;;;;;9.40;2.65;;;17.80;71.50;;;;;;5070540;23;20399;-68
2022/07/02 07:02:43;;;;;;;8.50;2.22;;;17.80;71.70;;;;;;5091668;23;20498;-66
2022/07/02 07:04:45;;;;;;;6.70;2.15;;;17.80;71.30;;;;;;5094289;23;20367;-68
2022/07/02 07:08:55;;;;;;;7.90;2.25;;;17.80;71.50;;;;;;5095377;23;20029;-67
2022/07/02 07:10:57;;;;;;;7.30;2.72;;;17.80;71.30;;;;;;5091166;23;20272;-68
2022/07/02 07:13:00;;;;;;;7.00;2.20;;;17.70;71.20;;;;;;5098074;23;20076;-67
2022/07/02 07:15:06;;;;;;;6.40;2.13;;;17.70;71.50;;;;;;5099746;23;20366;-66
2022/07/02 07:17:09;;;;;;;9.48;2.85;;;17.70;71.30;;;;;;5066430;23;20205;-67
2022/07/02 07:19:20;;;;;;;10.55;5.10;;;17.70;71.90;;;;;;5093810;23;20100;-69
2022/07/02 07:21:32;;;;;;;19.35;11.55;;;17.70;71.70;;;;;;5097088;23;20033;-66
2022/07/02 07:23:34;;;;;;;22.85;16.10;;;17.70;71.90;;;;;;5094821;23;20024;-68
2022/07/02 07:25:42;;;;;;;22.85;16.90;;;17.70;72.00;;;;;;5101033;23;20032;-66
2022/07/02 07:27:45;;;;;;;27.75;20.88;;;17.70;71.70;;;;;;5100769;23;20024;-68
2022/07/02 07:29:47;;;;;;;28.25;20.42;;;17.70;72.50;;;;;;5095089;23;20040;-67
2022/07/02 07:31:50;;;;;;;27.95;19.35;;;17.70;72.70;;;;;;5093247;23;20086;-68
2022/07/02 07:33:56;;;;;;;23.92;19.05;;;17.70;72.70;;;;;;5101062;23;20502;-69
2022/07/02 07:35:59;;;;;;;28.45;19.55;;;17.70;72.70;;;;;;5101490;23;20043;-65
2022/07/02 07:38:05;;;;;;;26.80;19.15;;;17.70;72.60;;;;;;5097803;23;20047;-66
2022/07/02 07:40:11;;;;;;;24.25;18.15;;;17.70;72.70;;;;;;5093088;23;20691;-67
2022/07/02 07:42:14;;;;;;;23.35;17.63;;;17.70;72.70;;;;;;5094920;23;20028;-69
2022/07/02 07:44:22;;;;;;;23.65;17.08;;;17.70;72.80;;;;;;5100224;23;20498;-69
2022/07/02 07:46:24;;;;;;;19.20;15.80;;;17.60;72.80;;;;;;5099215;23;21046;-66
2022/07/02 07:48:27;;;;;;;20.33;15.65;;;17.60;72.40;;;;;;5094075;23;20031;-66
2022/07/02 07:50:29;;;;;;;20.13;14.73;;;17.60;72.50;;;;;;5092974;23;20032;-66
2022/07/02 07:52:34;;;;;;;19.08;13.57;;;17.60;73.20;;;;;;5072346;23;20040;-68
2022/07/02 07:54:37;;;;;;;21.40;15.60;;;17.60;73.30;;;;;;5094470;23;20142;-68
2022/07/02 07:56:41;;;;;;;22.23;14.07;;;17.60;73.50;;;;;;5094224;23;20528;-65
2022/07/02 07:58:43;;;;;;;21.15;14.00;;;17.60;73.30;;;;;;5093403;23;20032;-65
2022/07/02 08:00:47;;;;;;;16.88;12.40;;;17.60;73.50;;;;;;5099192;23;20126;-66
2022/07/02 08:02:52;;;;;;;16.80;12.50;;;17.60;73.40;;;;;;5094298;23;20095;-70
2022/07/02 08:04:58;;;;;;;19.23;12.32;;;17.60;73.40;;;;;;5092726;23;20355;-69
2022/07/02 08:07:00;;;;;;;18.88;12.02;;;17.50;73.30;;;;;;5092664;23;20078;-65
2022/07/02 08:09:02;;;;;;;18.30;11.80;;;17.60;73.40;;;;;;5098324;23;20033;-67
2022/07/02 08:11:08;;;;;;;15.45;10.23;;;17.60;73.30;;;;;;5088014;23;20395;-69
2022/07/02 08:13:19;;;;;;;17.02;10.68;;;17.60;73.30;;;;;;5096786;23;20071;-69
2022/07/02 08:15:21;;;;;;;16.05;10.23;;;17.60;73.50;;;;;;5091879;23;20115;-68
2022/07/02 08:17:24;;;;;;;13.80;9.23;;;17.50;73.30;;;;;;5097605;23;20482;-72
2022/07/02 08:19:29;;;;;;;17.25;9.82;;;17.50;73.30;;;;;;5096469;23;20317;-65
2022/07/02 08:21:31;;;;;;;13.07;9.13;;;17.50;73.40;;;;;;5092763;23;20104;-70
2022/07/02 08:23:36;;;;;;;14.10;9.20;;;17.50;73.40;;;;;;5091731;23;20135;-69
2022/07/02 08:25:39;;;;;;;14.43;8.43;;;17.50;73.50;;;;;;5094226;23;20028;-67
2022/07/02 08:27:42;;;;;;;15.05;9.02;;;17.50;73.60;;;;;;5095409;23;20032;-67
2022/07/02 08:29:47;;;;;;;14.23;8.55;;;17.50;73.40;;;;;;5089994;23;20545;-68
2022/07/02 08:31:53;;;;;;;13.48;7.70;;;17.50;73.60;;;;;;5091160;23;20327;-72
2022/07/02 08:34:02;;;;;;;12.07;7.40;;;17.50;73.70;;;;;;5093077;23;20573;-71
2022/07/02 08:36:08;;;;;;;13.35;7.28;;;17.50;73.70;;;;;;5069996;23;20375;-71
2022/07/02 08:38:14;;;;;;;13.00;7.18;;;17.50;73.70;;;;;;5068307;23;20047;-70
2022/07/02 08:40:20;;;;;;;12.23;6.53;;;17.50;73.70;;;;;;5094395;23;20580;-69
2022/07/02 08:42:43;;;;;;;12.60;7.22;;;17.40;73.70;;;;;;5090946;23;20038;-69
2022/07/02 08:44:46;;;;;;;11.85;6.13;;;17.50;73.60;;;;;;5081457;23;20025;-69
2022/07/02 08:46:50;;;;;;;11.00;6.15;;;17.50;73.70;;;;;;5091525;23;20039;-71
2022/07/02 08:48:57;;;;;;;10.25;5.78;;;17.50;73.90;;;;;;5091312;23;20386;-70
2022/07/02 08:51:00;;;;;;;11.13;6.00;;;17.50;74.10;;;;;;5096030;23;20024;-68
2022/07/02 08:53:06;;;;;;;12.15;5.75;;;17.50;74.00;;;;;;5073322;23;20025;-67
2022/07/02 08:55:11;;;;;;;10.77;5.38;;;17.40;74.00;;;;;;5091929;23;21037;-70
2022/07/02 08:57:15;;;;;;;8.00;5.00;;;17.40;74.30;;;;;;5070136;23;20139;-68
2022/07/02 08:59:18;;;;;;;8.43;4.40;;;17.40;74.50;;;;;;5092691;23;20075;-71
2022/07/02 09:01:22;;;;;;;10.13;5.47;;;17.40;74.20;;;;;;5071647;23;20042;-69
2022/07/02 09:03:26;;;;;;;10.45;5.15;;;17.40;74.30;;;;;;5091675;23;20058;-67
2022/07/02 09:05:30;;;;;;;9.07;4.65;;;17.40;74.30;;;;;;5089185;23;20082;-69
2022/07/02 09:07:35;;;;;;;12.50;5.55;;;17.40;74.10;;;;;;5095229;23;20027;-68
2022/07/02 09:09:41;;;;;;;9.52;4.53;;;17.40;74.10;;;;;;5103816;23;20116;-68
2022/07/02 09:11:46;;;;;;;9.65;4.85;;;17.40;74.10;;;;;;5069334;23;20542;-67
2022/07/02 09:13:48;;;;;;;7.78;3.83;;;17.40;74.50;;;;;;5038514;23;20040;-68
2022/07/02 09:15:54;;;;;;;6.83;4.03;;;17.40;74.10;;;;;;5093462;23;20356;-68
2022/07/02 09:17:56;;;;;;;8.70;4.30;;;17.40;74.00;;;;;;5100570;23;20032;-69
2022/07/02 09:19:59;;;;;;;7.80;4.15;;;17.40;74.00;;;;;;5093364;23;20076;-71
2022/07/02 09:22:01;;;;;;;13.63;4.63;;;17.40;73.80;;;;;;5093666;23;20044;-72
2022/07/02 09:24:04;;;;;;;8.70;4.38;;;17.40;73.90;;;;;;5097502;23;20283;-66
2022/07/02 09:26:21;;;;;;;7.63;4.40;;;17.30;74.00;;;;;;5102475;23;20037;-69
2022/07/02 09:35:52;;;;;;;7.13;3.92;;;17.30;73.80;;;;;;5150102;23;20035;-66
2022/07/02 09:37:54;;;;;;;7.10;3.65;;;17.30;73.90;;;;;;5111264;23;20087;-68
2022/07/02 09:39:59;;;;;;;7.25;4.03;;;17.30;73.90;;;;;;5096083;23;20040;-67
2022/07/02 09:42:01;;;;;;;9.52;4.30;;;17.30;74.00;;;;;;5095538;23;20024;-69
2022/07/02 09:44:06;;;;;;;7.80;3.42;;;17.30;74.00;;;;;;5094048;23;20032;-68
2022/07/02 09:46:17;;;;;;;9.70;3.50;;;17.30;74.00;;;;;;5089066;23;20348;-66
2022/07/02 09:48:19;;;;;;;7.65;3.38;;;17.30;74.10;;;;;;5088811;23;20075;-67
2022/07/02 09:50:24;;;;;;;8.95;3.40;;;17.30;74.20;;;;;;5095385;23;20029;-67
2022/07/02 09:52:26;;;;;;;8.82;3.42;;;17.30;74.40;;;;;;5064053;23;20031;-66
2022/07/02 09:54:30;;;;;;;5.82;2.92;;;17.30;74.40;;;;;;5088418;23;20064;-66
2022/07/02 09:56:32;;;;;;;5.70;2.95;;;17.30;74.50;;;;;;5090511;23;20501;-67
2022/07/02 09:58:34;;;;;;;6.70;3.20;;;17.20;74.50;;;;;;5094314;23;20462;-67
2022/07/02 10:00:45;;;;;;;8.77;3.47;;;17.20;74.40;;;;;;5090217;23;20024;-66
2022/07/02 10:02:51;;;;;;;7.95;3.25;;;17.20;74.40;;;;;;5090888;23;20072;-70
2022/07/02 10:04:56;;;;;;;6.97;3.22;;;17.20;74.40;;;;;;5089772;23;20024;-68
2022/07/02 10:06:59;;;;;;;7.47;3.03;;;17.20;74.30;;;;;;5091721;23;20059;-69
2022/07/02 10:09:01;;;;;;;;;;;17.20;74.30;;;;;;5094966;23;20032;-65
2022/07/02 10:11:04;;;;;;;7.80;3.20;;;17.20;74.20;;;;;;5095273;23;19919;-67
2022/07/02 10:13:17;;;;;;;6.13;2.50;;;17.20;74.20;;;;;;5092648;23;20032;-69
2022/07/02 10:15:23;;;;;;;8.82;3.20;;;17.20;74.20;;;;;;5093365;23;20180;-67
2022/07/02 10:17:28;;;;;;;7.30;2.72;;;17.20;75.00;;;;;;5094028;23;20024;-69
2022/07/02 10:19:42;;;;;;;6.93;2.88;;;17.20;74.40;;;;;;5100464;23;20039;-65
2022/07/02 10:21:47;;;;;;;5.68;2.80;;;17.20;74.30;;;;;;5074423;23;20348;-67
2022/07/02 10:23:49;;;;;;;7.68;2.78;;;17.20;74.70;;;;;;5065947;23;20566;-70
2022/07/02 10:25:56;;;;;;;8.52;2.78;;;17.20;74.50;;;;;;5091222;23;20044;-65
2022/07/02 10:28:01;;;;;;;9.50;2.75;;;17.20;74.40;;;;;;5092642;23;20351;-64
2022/07/02 10:30:04;;;;;;;9.27;3.25;;;17.20;74.70;;;;;;5098716;23;20457;-67
2022/07/02 10:32:38;;;;;;;7.63;2.93;;;17.20;74.50;;;;;;5097793;23;20114;-67
2022/07/02 10:35:17;;;;;;;7.90;2.97;;;17.20;74.70;;;;;;5090728;23;20106;-69
2022/07/02 10:37:19;;;;;;;7.28;2.70;;;17.20;74.50;;;;;;5087619;23;20318;-67
2022/07/02 10:39:21;;;;;;;6.07;2.50;;;17.20;74.50;;;;;;5094936;23;20036;-69
2022/07/02 10:41:33;;;;;;;7.80;3.17;;;17.20;74.40;;;;;;5085826;23;20127;-66
2022/07/02 10:43:39;;;;;;;5.95;2.67;;;17.10;74.20;;;;;;5089688;23;20036;-67
2022/07/02 10:45:42;;;;;;;8.35;2.15;;;17.20;74.50;;;;;;5088203;23;20186;-67
2022/07/02 10:48:16;;;;;;;6.97;2.97;;;17.10;74.40;;;;;;5096403;23;20482;-69
2022/07/02 10:50:18;;;;;;;;;;;17.20;74.40;;;;;;5029924;23;20036;-70
2022/07/02 10:52:36;;;;;;;7.03;2.60;;;17.10;74.30;;;;;;5089466;23;19920;-68
2022/07/02 10:54:44;;;;;;;6.32;2.63;;;17.10;74.50;;;;;;5090393;23;20261;-66
2022/07/02 10:56:54;;;;;;;7.22;2.63;;;17.10;74.50;;;;;;5089980;23;20032;-67
2022/07/02 10:58:57;;;;;;;6.82;2.25;;;17.10;74.50;;;;;;5089094;23;20037;-66
2022/07/02 11:01:13;;;;;;;6.85;2.70;;;17.10;74.50;;;;;;5087006;23;20544;-71
2022/07/02 11:03:24;;;;;;;6.00;2.85;;;17.10;74.50;;;;;;5087650;23;20077;-68
2022/07/02 11:05:26;;;;;;;7.10;2.50;;;17.10;74.60;;;;;;5086401;23;20107;-68
2022/07/02 11:07:28;;;;;;;6.25;2.30;;;17.10;74.60;;;;;;5094520;23;20460;-67
2022/07/02 11:09:31;;;;;;;7.82;2.80;;;17.10;74.50;;;;;;5092238;23;20607;-67
2022/07/02 11:11:36;;;;;;;12.27;3.17;;;17.10;74.40;;;;;;5088887;23;20028;-65
2022/07/02 11:13:47;;;;;;;7.07;2.55;;;17.10;74.30;;;;;;5062437;23;20064;-67
2022/07/02 11:15:50;;;;;;;7.35;2.63;;;17.10;74.50;;;;;;5090204;23;20056;-68
2022/07/02 11:17:54;;;;;;;5.70;2.33;;;17.10;74.30;;;;;;5095357;23;20261;-67
2022/07/02 11:19:57;;;;;;;6.88;2.30;;;17.10;74.20;;;;;;5062807;23;20035;-69